sensor_id;sensor_type;location;lat;lon;timestamp;P1;durP1;ratioP1;P2;durP2;ratioP2
33104;SDS011;19476;51.448;6.674;2023-11-21T00:01:31;10.90;;;6.07;;
33104;SDS011;19476;51.448;6.674;2023-11-21T00:03:57;10.02;;;5.60;;
33104;SDS011;19476;51.448;6.674;2023-11-21T00:06:23;10.18;;;5.28;;
33104;SDS011;19476;51.448;6.674;2023-11-21T00:08:49;9.13;;;4.70;;
33104;SDS011;19476;51.448;6.674;2023-11-21T00:11:14;6.93;;;4.90;;
33104;SDS011;19476;51.448;6.674;2023-11-21T00:13:40;9.02;;;4.70;;
33104;SDS011;19476;51.448;6.674;2023-11-21T00:16:06;10.73;;;5.25;;
33104;SDS011;19476;51.448;6.674;2023-11-21T00:18:32;8.77;;;5.30;;
33104;SDS011;19476;51.448;6.674;2023-11-21T00:20:58;9.10;;;5.25;;
33104;SDS011;19476;51.448;6.674;2023-11-21T00:23:24;8.70;;;5.00;;
33104;SDS011;19476;51.448;6.674;2023-11-21T00:25:49;7.82;;;5.15;;
33104;SDS011;19476;51.448;6.674;2023-11-21T00:28:15;8.07;;;5.22;;
33104;SDS011;19476;51.448;6.674;2023-11-21T00:30:41;8.98;;;5.18;;
33104;SDS011;19476;51.448;6.674;2023-11-21T00:33:07;8.50;;;5.07;;
33104;SDS011;19476;51.448;6.674;2023-11-21T00:35:33;8.68;;;4.80;;
33104;SDS011;19476;51.448;6.674;2023-11-21T00:37:58;6.90;;;4.55;;
33104;SDS011;19476;51.448;6.674;2023-11-21T00:40:24;8.60;;;4.55;;
33104;SDS011;19476;51.448;6.674;2023-11-21T00:42:50;9.43;;;5.05;;
33104;SDS011;19476;51.448;6.674;2023-11-21T00:45:16;8.68;;;5.25;;
33104;SDS011;19476;51.448;6.674;2023-11-21T00:47:41;7.82;;;4.63;;
33104;SDS011;19476;51.448;6.674;2023-11-21T00:50:07;8.43;;;4.65;;
33104;SDS011;19476;51.448;6.674;2023-11-21T00:52:34;8.18;;;4.65;;
33104;SDS011;19476;51.448;6.674;2023-11-21T00:55:01;8.35;;;4.28;;
33104;SDS011;19476;51.448;6.674;2023-11-21T00:57:28;8.52;;;4.60;;
33104;SDS011;19476;51.448;6.674;2023-11-21T00:59:54;7.55;;;4.10;;
33104;SDS011;19476;51.448;6.674;2023-11-21T01:02:20;9.07;;;4.95;;
33104;SDS011;19476;51.448;6.674;2023-11-21T01:04:45;9.75;;;4.15;;
33104;SDS011;19476;51.448;6.674;2023-11-21T01:07:12;8.68;;;4.07;;
33104;SDS011;19476;51.448;6.674;2023-11-21T01:09:38;8.98;;;4.78;;
33104;SDS011;19476;51.448;6.674;2023-11-21T01:12:05;7.70;;;4.80;;
33104;SDS011;19476;51.448;6.674;2023-11-21T01:14:31;7.07;;;3.88;;
33104;SDS011;19476;51.448;6.674;2023-11-21T01:16:57;7.28;;;3.95;;
33104;SDS011;19476;51.448;6.674;2023-11-21T01:19:23;7.05;;;4.00;;
33104;SDS011;19476;51.448;6.674;2023-11-21T01:21:48;7.18;;;4.00;;
33104;SDS011;19476;51.448;6.674;2023-11-21T01:24:14;6.85;;;3.95;;
33104;SDS011;19476;51.448;6.674;2023-11-21T01:26:40;6.30;;;3.78;;
33104;SDS011;19476;51.448;6.674;2023-11-21T01:29:06;7.50;;;4.43;;
33104;SDS011;19476;51.448;6.674;2023-11-21T01:31:31;8.63;;;4.35;;
33104;SDS011;19476;51.448;6.674;2023-11-21T01:33:57;7.78;;;4.28;;
33104;SDS011;19476;51.448;6.674;2023-11-21T01:36:23;7.03;;;4.03;;
33104;SDS011;19476;51.448;6.674;2023-11-21T01:38:57;7.45;;;3.63;;
33104;SDS011;19476;51.448;6.674;2023-11-21T01:41:24;7.57;;;4.00;;
33104;SDS011;19476;51.448;6.674;2023-11-21T01:43:52;7.43;;;4.03;;
33104;SDS011;19476;51.448;6.674;2023-11-21T01:46:19;7.25;;;4.07;;
33104;SDS011;19476;51.448;6.674;2023-11-21T01:48:45;7.82;;;3.90;;
33104;SDS011;19476;51.448;6.674;2023-11-21T01:51:13;7.82;;;4.45;;
33104;SDS011;19476;51.448;6.674;2023-11-21T01:53:39;6.10;;;3.83;;
33104;SDS011;19476;51.448;6.674;2023-11-21T01:56:06;8.27;;;4.57;;
33104;SDS011;19476;51.448;6.674;2023-11-21T01:58:33;7.38;;;4.22;;
33104;SDS011;19476;51.448;6.674;2023-11-21T02:00:59;9.90;;;4.90;;
33104;SDS011;19476;51.448;6.674;2023-11-21T02:03:24;9.65;;;4.43;;
33104;SDS011;19476;51.448;6.674;2023-11-21T02:05:51;9.05;;;4.60;;
33104;SDS011;19476;51.448;6.674;2023-11-21T02:08:18;7.55;;;4.63;;
33104;SDS011;19476;51.448;6.674;2023-11-21T02:10:44;9.18;;;4.82;;
33104;SDS011;19476;51.448;6.674;2023-11-21T02:13:10;12.13;;;5.20;;
33104;SDS011;19476;51.448;6.674;2023-11-21T02:15:37;9.73;;;4.78;;
33104;SDS011;19476;51.448;6.674;2023-11-21T02:18:03;11.43;;;5.07;;
33104;SDS011;19476;51.448;6.674;2023-11-21T02:20:31;11.70;;;5.13;;
33104;SDS011;19476;51.448;6.674;2023-11-21T02:23:00;7.80;;;4.57;;
33104;SDS011;19476;51.448;6.674;2023-11-21T02:25:26;9.75;;;4.88;;
33104;SDS011;19476;51.448;6.674;2023-11-21T02:28:00;8.75;;;4.63;;
33104;SDS011;19476;51.448;6.674;2023-11-21T02:30:27;7.65;;;4.75;;
33104;SDS011;19476;51.448;6.674;2023-11-21T02:32:53;7.63;;;4.38;;
33104;SDS011;19476;51.448;6.674;2023-11-21T02:35:19;9.15;;;5.28;;
33104;SDS011;19476;51.448;6.674;2023-11-21T02:37:50;8.32;;;5.03;;
33104;SDS011;19476;51.448;6.674;2023-11-21T02:40:17;8.32;;;4.85;;
33104;SDS011;19476;51.448;6.674;2023-11-21T02:42:43;8.88;;;4.78;;
33104;SDS011;19476;51.448;6.674;2023-11-21T02:45:09;9.88;;;5.82;;
33104;SDS011;19476;51.448;6.674;2023-11-21T02:47:37;9.07;;;5.75;;
33104;SDS011;19476;51.448;6.674;2023-11-21T02:50:04;8.45;;;5.18;;
33104;SDS011;19476;51.448;6.674;2023-11-21T02:52:32;8.45;;;5.07;;
33104;SDS011;19476;51.448;6.674;2023-11-21T02:54:58;7.88;;;4.82;;
33104;SDS011;19476;51.448;6.674;2023-11-21T02:57:24;8.98;;;5.43;;
33104;SDS011;19476;51.448;6.674;2023-11-21T02:59:50;8.20;;;4.93;;
33104;SDS011;19476;51.448;6.674;2023-11-21T03:02:16;9.80;;;5.15;;
33104;SDS011;19476;51.448;6.674;2023-11-21T03:04:42;10.02;;;5.47;;
33104;SDS011;19476;51.448;6.674;2023-11-21T03:07:08;10.95;;;5.50;;
33104;SDS011;19476;51.448;6.674;2023-11-21T03:09:35;9.82;;;5.95;;
33104;SDS011;19476;51.448;6.674;2023-11-21T03:12:00;9.68;;;5.78;;
33104;SDS011;19476;51.448;6.674;2023-11-21T03:14:26;9.45;;;5.10;;
33104;SDS011;19476;51.448;6.674;2023-11-21T03:16:52;11.07;;;5.35;;
33104;SDS011;19476;51.448;6.674;2023-11-21T03:19:18;9.98;;;5.47;;
33104;SDS011;19476;51.448;6.674;2023-11-21T03:21:44;10.23;;;5.22;;
33104;SDS011;19476;51.448;6.674;2023-11-21T03:24:09;12.52;;;6.78;;
33104;SDS011;19476;51.448;6.674;2023-11-21T03:26:35;11.48;;;5.85;;
33104;SDS011;19476;51.448;6.674;2023-11-21T03:29:02;9.88;;;5.57;;
33104;SDS011;19476;51.448;6.674;2023-11-21T03:31:29;10.50;;;5.50;;
33104;SDS011;19476;51.448;6.674;2023-11-21T03:33:55;8.95;;;5.00;;
33104;SDS011;19476;51.448;6.674;2023-11-21T03:36:21;9.40;;;5.38;;
33104;SDS011;19476;51.448;6.674;2023-11-21T03:38:47;9.82;;;5.53;;
33104;SDS011;19476;51.448;6.674;2023-11-21T03:41:13;10.75;;;5.70;;
33104;SDS011;19476;51.448;6.674;2023-11-21T03:43:39;10.30;;;5.30;;
33104;SDS011;19476;51.448;6.674;2023-11-21T03:46:06;12.38;;;5.10;;
33104;SDS011;19476;51.448;6.674;2023-11-21T03:48:32;9.98;;;5.43;;
33104;SDS011;19476;51.448;6.674;2023-11-21T03:50:58;10.80;;;5.85;;
33104;SDS011;19476;51.448;6.674;2023-11-21T03:53:23;9.50;;;6.03;;
33104;SDS011;19476;51.448;6.674;2023-11-21T03:55:49;12.23;;;5.47;;
33104;SDS011;19476;51.448;6.674;2023-11-21T03:58:15;10.45;;;6.13;;
33104;SDS011;19476;51.448;6.674;2023-11-21T04:00:41;9.07;;;5.40;;
33104;SDS011;19476;51.448;6.674;2023-11-21T04:03:06;9.32;;;5.70;;
33104;SDS011;19476;51.448;6.674;2023-11-21T04:05:32;11.02;;;5.15;;
33104;SDS011;19476;51.448;6.674;2023-11-21T04:07:57;9.55;;;5.72;;
33104;SDS011;19476;51.448;6.674;2023-11-21T04:10:23;10.90;;;5.38;;
33104;SDS011;19476;51.448;6.674;2023-11-21T04:12:49;11.20;;;5.57;;
33104;SDS011;19476;51.448;6.674;2023-11-21T04:15:15;10.48;;;5.90;;
33104;SDS011;19476;51.448;6.674;2023-11-21T04:17:41;8.95;;;5.30;;
33104;SDS011;19476;51.448;6.674;2023-11-21T04:20:07;10.65;;;5.93;;
33104;SDS011;19476;51.448;6.674;2023-11-21T04:22:40;11.13;;;5.53;;
33104;SDS011;19476;51.448;6.674;2023-11-21T04:25:13;10.70;;;5.25;;
33104;SDS011;19476;51.448;6.674;2023-11-21T04:27:40;11.57;;;5.22;;
33104;SDS011;19476;51.448;6.674;2023-11-21T04:32:36;10.13;;;4.82;;
33104;SDS011;19476;51.448;6.674;2023-11-21T04:35:04;11.98;;;5.80;;
33104;SDS011;19476;51.448;6.674;2023-11-21T04:37:30;10.20;;;5.00;;
33104;SDS011;19476;51.448;6.674;2023-11-21T04:39:56;10.27;;;5.35;;
33104;SDS011;19476;51.448;6.674;2023-11-21T04:42:22;13.52;;;5.63;;
33104;SDS011;19476;51.448;6.674;2023-11-21T04:44:48;11.35;;;5.90;;
33104;SDS011;19476;51.448;6.674;2023-11-21T04:47:14;10.73;;;5.65;;
33104;SDS011;19476;51.448;6.674;2023-11-21T04:49:43;11.82;;;6.22;;
33104;SDS011;19476;51.448;6.674;2023-11-21T04:52:11;10.35;;;5.65;;
33104;SDS011;19476;51.448;6.674;2023-11-21T04:54:37;9.18;;;5.13;;
33104;SDS011;19476;51.448;6.674;2023-11-21T04:57:05;9.75;;;5.55;;
33104;SDS011;19476;51.448;6.674;2023-11-21T04:59:32;9.90;;;6.15;;
33104;SDS011;19476;51.448;6.674;2023-11-21T05:01:58;10.98;;;5.47;;
33104;SDS011;19476;51.448;6.674;2023-11-21T05:04:25;10.40;;;5.43;;
33104;SDS011;19476;51.448;6.674;2023-11-21T05:06:52;10.65;;;5.97;;
33104;SDS011;19476;51.448;6.674;2023-11-21T05:09:17;11.30;;;5.80;;
33104;SDS011;19476;51.448;6.674;2023-11-21T05:11:43;9.32;;;5.90;;
33104;SDS011;19476;51.448;6.674;2023-11-21T05:14:09;11.23;;;5.78;;
33104;SDS011;19476;51.448;6.674;2023-11-21T05:16:35;11.80;;;6.28;;
33104;SDS011;19476;51.448;6.674;2023-11-21T05:19:01;12.82;;;7.20;;
33104;SDS011;19476;51.448;6.674;2023-11-21T05:21:27;12.00;;;6.85;;
33104;SDS011;19476;51.448;6.674;2023-11-21T05:23:55;11.48;;;6.75;;
33104;SDS011;19476;51.448;6.674;2023-11-21T05:26:20;13.35;;;7.22;;
33104;SDS011;19476;51.448;6.674;2023-11-21T05:28:46;12.35;;;6.75;;
33104;SDS011;19476;51.448;6.674;2023-11-21T05:31:12;13.98;;;7.03;;
33104;SDS011;19476;51.448;6.674;2023-11-21T05:33:38;12.82;;;7.00;;
33104;SDS011;19476;51.448;6.674;2023-11-21T05:36:04;14.57;;;7.57;;
33104;SDS011;19476;51.448;6.674;2023-11-21T05:38:32;12.77;;;7.53;;
33104;SDS011;19476;51.448;6.674;2023-11-21T05:40:58;15.38;;;7.50;;
33104;SDS011;19476;51.448;6.674;2023-11-21T05:43:24;13.48;;;7.35;;
33104;SDS011;19476;51.448;6.674;2023-11-21T05:45:50;16.88;;;8.48;;
33104;SDS011;19476;51.448;6.674;2023-11-21T05:48:15;17.40;;;8.80;;
33104;SDS011;19476;51.448;6.674;2023-11-21T05:50:42;14.63;;;8.25;;
33104;SDS011;19476;51.448;6.674;2023-11-21T05:53:07;14.13;;;8.60;;
33104;SDS011;19476;51.448;6.674;2023-11-21T05:55:35;15.45;;;8.63;;
33104;SDS011;19476;51.448;6.674;2023-11-21T05:58:00;17.13;;;9.07;;
33104;SDS011;19476;51.448;6.674;2023-11-21T06:00:26;14.70;;;8.13;;
33104;SDS011;19476;51.448;6.674;2023-11-21T06:02:53;14.32;;;8.05;;
33104;SDS011;19476;51.448;6.674;2023-11-21T06:05:19;16.67;;;9.27;;
33104;SDS011;19476;51.448;6.674;2023-11-21T06:07:48;15.03;;;8.60;;
33104;SDS011;19476;51.448;6.674;2023-11-21T06:10:14;17.38;;;7.97;;
33104;SDS011;19476;51.448;6.674;2023-11-21T06:12:42;14.38;;;7.97;;
33104;SDS011;19476;51.448;6.674;2023-11-21T06:15:08;14.15;;;8.25;;
33104;SDS011;19476;51.448;6.674;2023-11-21T06:17:38;14.02;;;8.30;;
33104;SDS011;19476;51.448;6.674;2023-11-21T06:20:06;17.15;;;8.95;;
33104;SDS011;19476;51.448;6.674;2023-11-21T06:22:39;16.40;;;8.30;;
33104;SDS011;19476;51.448;6.674;2023-11-21T06:27:37;16.17;;;8.63;;
33104;SDS011;19476;51.448;6.674;2023-11-21T06:30:04;18.15;;;8.38;;
33104;SDS011;19476;51.448;6.674;2023-11-21T06:32:31;14.70;;;8.00;;
33104;SDS011;19476;51.448;6.674;2023-11-21T06:34:58;15.30;;;7.90;;
33104;SDS011;19476;51.448;6.674;2023-11-21T06:37:26;16.25;;;8.43;;
33104;SDS011;19476;51.448;6.674;2023-11-21T06:39:53;15.77;;;8.32;;
33104;SDS011;19476;51.448;6.674;2023-11-21T06:42:19;15.95;;;8.85;;
33104;SDS011;19476;51.448;6.674;2023-11-21T06:44:46;15.80;;;8.50;;
33104;SDS011;19476;51.448;6.674;2023-11-21T06:47:13;16.70;;;8.20;;
33104;SDS011;19476;51.448;6.674;2023-11-21T06:49:38;18.10;;;9.43;;
33104;SDS011;19476;51.448;6.674;2023-11-21T06:52:04;16.65;;;8.90;;
33104;SDS011;19476;51.448;6.674;2023-11-21T06:54:33;16.17;;;8.80;;
33104;SDS011;19476;51.448;6.674;2023-11-21T06:57:00;15.05;;;8.48;;
33104;SDS011;19476;51.448;6.674;2023-11-21T06:59:28;14.57;;;8.27;;
33104;SDS011;19476;51.448;6.674;2023-11-21T07:01:53;17.45;;;9.50;;
33104;SDS011;19476;51.448;6.674;2023-11-21T07:04:19;17.35;;;8.57;;
33104;SDS011;19476;51.448;6.674;2023-11-21T07:06:45;16.73;;;9.07;;
33104;SDS011;19476;51.448;6.674;2023-11-21T07:09:11;18.63;;;8.88;;
33104;SDS011;19476;51.448;6.674;2023-11-21T07:11:38;18.20;;;9.50;;
33104;SDS011;19476;51.448;6.674;2023-11-21T07:14:04;16.15;;;9.27;;
33104;SDS011;19476;51.448;6.674;2023-11-21T07:16:36;19.48;;;9.63;;
33104;SDS011;19476;51.448;6.674;2023-11-21T07:19:06;18.50;;;9.27;;
33104;SDS011;19476;51.448;6.674;2023-11-21T07:21:35;16.55;;;9.07;;
33104;SDS011;19476;51.448;6.674;2023-11-21T07:24:01;16.80;;;9.00;;
33104;SDS011;19476;51.448;6.674;2023-11-21T07:26:28;15.63;;;8.82;;
33104;SDS011;19476;51.448;6.674;2023-11-21T07:28:54;18.38;;;9.20;;
33104;SDS011;19476;51.448;6.674;2023-11-21T07:31:21;16.92;;;9.20;;
33104;SDS011;19476;51.448;6.674;2023-11-21T07:33:47;15.05;;;7.97;;
33104;SDS011;19476;51.448;6.674;2023-11-21T07:36:13;19.45;;;7.95;;
33104;SDS011;19476;51.448;6.674;2023-11-21T07:38:40;15.32;;;7.82;;
33104;SDS011;19476;51.448;6.674;2023-11-21T07:41:06;14.05;;;7.65;;
33104;SDS011;19476;51.448;6.674;2023-11-21T07:43:35;14.30;;;7.93;;
33104;SDS011;19476;51.448;6.674;2023-11-21T07:46:04;18.92;;;9.32;;
33104;SDS011;19476;51.448;6.674;2023-11-21T07:48:33;15.50;;;8.77;;
33104;SDS011;19476;51.448;6.674;2023-11-21T07:50:59;14.50;;;7.88;;
33104;SDS011;19476;51.448;6.674;2023-11-21T07:53:26;14.32;;;8.02;;
33104;SDS011;19476;51.448;6.674;2023-11-21T07:55:55;13.88;;;8.30;;
33104;SDS011;19476;51.448;6.674;2023-11-21T07:58:21;15.00;;;8.18;;
33104;SDS011;19476;51.448;6.674;2023-11-21T08:00:47;15.52;;;8.68;;
33104;SDS011;19476;51.448;6.674;2023-11-21T08:03:13;13.90;;;7.75;;
33104;SDS011;19476;51.448;6.674;2023-11-21T08:05:39;12.55;;;7.38;;
33104;SDS011;19476;51.448;6.674;2023-11-21T08:08:05;14.90;;;8.35;;
33104;SDS011;19476;51.448;6.674;2023-11-21T08:10:30;13.73;;;7.38;;
33104;SDS011;19476;51.448;6.674;2023-11-21T08:12:56;12.57;;;7.13;;
33104;SDS011;19476;51.448;6.674;2023-11-21T08:15:23;13.75;;;7.43;;
33104;SDS011;19476;51.448;6.674;2023-11-21T08:17:49;12.48;;;7.65;;
33104;SDS011;19476;51.448;6.674;2023-11-21T08:20:14;13.30;;;7.07;;
33104;SDS011;19476;51.448;6.674;2023-11-21T08:22:41;13.45;;;7.20;;
33104;SDS011;19476;51.448;6.674;2023-11-21T08:25:07;15.27;;;8.45;;
33104;SDS011;19476;51.448;6.674;2023-11-21T08:27:33;16.15;;;9.15;;
33104;SDS011;19476;51.448;6.674;2023-11-21T08:30:03;16.60;;;9.25;;
33104;SDS011;19476;51.448;6.674;2023-11-21T08:32:29;15.43;;;8.65;;
33104;SDS011;19476;51.448;6.674;2023-11-21T08:34:58;15.13;;;8.55;;
33104;SDS011;19476;51.448;6.674;2023-11-21T08:37:24;14.65;;;8.15;;
33104;SDS011;19476;51.448;6.674;2023-11-21T08:39:52;16.33;;;8.40;;
33104;SDS011;19476;51.448;6.674;2023-11-21T08:42:18;15.77;;;8.30;;
33104;SDS011;19476;51.448;6.674;2023-11-21T08:44:44;15.77;;;8.52;;
33104;SDS011;19476;51.448;6.674;2023-11-21T08:47:11;14.93;;;7.82;;
33104;SDS011;19476;51.448;6.674;2023-11-21T08:49:37;13.70;;;7.13;;
33104;SDS011;19476;51.448;6.674;2023-11-21T08:52:03;14.55;;;7.35;;
33104;SDS011;19476;51.448;6.674;2023-11-21T08:54:30;13.95;;;8.45;;
33104;SDS011;19476;51.448;6.674;2023-11-21T08:56:56;14.23;;;8.00;;
33104;SDS011;19476;51.448;6.674;2023-11-21T08:59:23;16.50;;;7.57;;
33104;SDS011;19476;51.448;6.674;2023-11-21T09:01:49;12.32;;;6.90;;
33104;SDS011;19476;51.448;6.674;2023-11-21T09:04:15;13.98;;;8.02;;
33104;SDS011;19476;51.448;6.674;2023-11-21T09:06:41;12.30;;;6.93;;
33104;SDS011;19476;51.448;6.674;2023-11-21T09:09:07;13.50;;;6.85;;
33104;SDS011;19476;51.448;6.674;2023-11-21T09:11:35;11.40;;;6.90;;
33104;SDS011;19476;51.448;6.674;2023-11-21T09:14:02;11.40;;;6.78;;
33104;SDS011;19476;51.448;6.674;2023-11-21T09:16:30;12.88;;;7.20;;
33104;SDS011;19476;51.448;6.674;2023-11-21T09:18:56;12.77;;;6.47;;
33104;SDS011;19476;51.448;6.674;2023-11-21T09:21:25;10.85;;;6.22;;
33104;SDS011;19476;51.448;6.674;2023-11-21T09:26:19;10.90;;;6.60;;
33104;SDS011;19476;51.448;6.674;2023-11-21T09:28:45;12.25;;;6.50;;
33104;SDS011;19476;51.448;6.674;2023-11-21T09:31:29;15.45;;;7.22;;
33104;SDS011;19476;51.448;6.674;2023-11-21T09:33:56;13.63;;;6.95;;
33104;SDS011;19476;51.448;6.674;2023-11-21T09:36:22;14.57;;;8.07;;
33104;SDS011;19476;51.448;6.674;2023-11-21T09:38:52;15.48;;;8.27;;
33104;SDS011;19476;51.448;6.674;2023-11-21T09:42:04;15.40;;;8.80;;
33104;SDS011;19476;51.448;6.674;2023-11-21T09:44:23;15.30;;;8.40;;
33104;SDS011;19476;51.448;6.674;2023-11-21T09:47:07;12.48;;;7.10;;
33104;SDS011;19476;51.448;6.674;2023-11-21T09:49:35;13.25;;;8.23;;
33104;SDS011;19476;51.448;6.674;2023-11-21T09:52:03;14.15;;;7.90;;
33104;SDS011;19476;51.448;6.674;2023-11-21T09:54:30;13.75;;;7.55;;
33104;SDS011;19476;51.448;6.674;2023-11-21T09:56:58;13.32;;;7.82;;
33104;SDS011;19476;51.448;6.674;2023-11-21T09:59:24;13.32;;;7.47;;
33104;SDS011;19476;51.448;6.674;2023-11-21T10:01:55;13.80;;;7.43;;
33104;SDS011;19476;51.448;6.674;2023-11-21T10:04:24;14.80;;;8.18;;
33104;SDS011;19476;51.448;6.674;2023-11-21T10:06:52;14.43;;;8.05;;
33104;SDS011;19476;51.448;6.674;2023-11-21T10:09:19;14.80;;;7.65;;
33104;SDS011;19476;51.448;6.674;2023-11-21T10:11:46;11.88;;;7.40;;
33104;SDS011;19476;51.448;6.674;2023-11-21T10:14:14;13.93;;;7.88;;
33104;SDS011;19476;51.448;6.674;2023-11-21T10:16:44;15.65;;;7.65;;
33104;SDS011;19476;51.448;6.674;2023-11-21T10:19:12;13.95;;;8.27;;
33104;SDS011;19476;51.448;6.674;2023-11-21T10:21:39;13.95;;;7.10;;
33104;SDS011;19476;51.448;6.674;2023-11-21T10:24:05;13.15;;;6.80;;
33104;SDS011;19476;51.448;6.674;2023-11-21T10:26:31;13.07;;;7.30;;
33104;SDS011;19476;51.448;6.674;2023-11-21T10:28:59;15.07;;;8.45;;
33104;SDS011;19476;51.448;6.674;2023-11-21T10:31:31;14.65;;;8.23;;
33104;SDS011;19476;51.448;6.674;2023-11-21T10:37:07;25.92;;;8.30;;
33104;SDS011;19476;51.448;6.674;2023-11-21T10:39:37;14.10;;;8.30;;
33104;SDS011;19476;51.448;6.674;2023-11-21T10:42:04;13.77;;;7.97;;
33104;SDS011;19476;51.448;6.674;2023-11-21T10:44:32;18.17;;;9.10;;
33104;SDS011;19476;51.448;6.674;2023-11-21T10:47:00;15.70;;;9.20;;
33104;SDS011;19476;51.448;6.674;2023-11-21T10:49:26;16.50;;;9.02;;
33104;SDS011;19476;51.448;6.674;2023-11-21T10:51:53;16.88;;;10.68;;
33104;SDS011;19476;51.448;6.674;2023-11-21T10:54:22;21.08;;;12.02;;
33104;SDS011;19476;51.448;6.674;2023-11-21T10:59:18;18.95;;;10.63;;
33104;SDS011;19476;51.448;6.674;2023-11-21T11:01:46;19.35;;;11.50;;
33104;SDS011;19476;51.448;6.674;2023-11-21T11:04:17;20.48;;;11.85;;
33104;SDS011;19476;51.448;6.674;2023-11-21T11:06:44;17.60;;;10.43;;
33104;SDS011;19476;51.448;6.674;2023-11-21T11:09:21;19.20;;;10.60;;
33104;SDS011;19476;51.448;6.674;2023-11-21T11:11:47;18.63;;;10.50;;
33104;SDS011;19476;51.448;6.674;2023-11-21T11:14:14;17.70;;;10.82;;
33104;SDS011;19476;51.448;6.674;2023-11-21T11:16:40;20.17;;;11.50;;
33104;SDS011;19476;51.448;6.674;2023-11-21T11:19:07;21.52;;;11.57;;
33104;SDS011;19476;51.448;6.674;2023-11-21T11:34:52;16.20;;;9.13;;
33104;SDS011;19476;51.448;6.674;2023-11-21T11:37:25;16.40;;;8.90;;
33104;SDS011;19476;51.448;6.674;2023-11-21T11:39:52;13.15;;;8.10;;
33104;SDS011;19476;51.448;6.674;2023-11-21T11:42:19;17.38;;;8.15;;
33104;SDS011;19476;51.448;6.674;2023-11-21T11:44:47;14.07;;;9.45;;
33104;SDS011;19476;51.448;6.674;2023-11-21T11:50:00;13.98;;;8.70;;
33104;SDS011;19476;51.448;6.674;2023-11-21T11:52:41;14.32;;;8.75;;
33104;SDS011;19476;51.448;6.674;2023-11-21T11:55:15;15.82;;;8.52;;
33104;SDS011;19476;51.448;6.674;2023-11-21T11:57:46;15.45;;;8.35;;
33104;SDS011;19476;51.448;6.674;2023-11-21T12:00:19;16.45;;;9.25;;
33104;SDS011;19476;51.448;6.674;2023-11-21T12:02:48;17.98;;;8.85;;
33104;SDS011;19476;51.448;6.674;2023-11-21T12:05:16;20.70;;;10.30;;
33104;SDS011;19476;51.448;6.674;2023-11-21T12:07:49;15.43;;;8.45;;
33104;SDS011;19476;51.448;6.674;2023-11-21T12:10:22;20.35;;;10.57;;
33104;SDS011;19476;51.448;6.674;2023-11-21T12:13:05;17.65;;;10.38;;
33104;SDS011;19476;51.448;6.674;2023-11-21T12:17:59;16.92;;;10.00;;
33104;SDS011;19476;51.448;6.674;2023-11-21T12:20:25;19.00;;;10.45;;
33104;SDS011;19476;51.448;6.674;2023-11-21T12:22:54;17.92;;;9.75;;
33104;SDS011;19476;51.448;6.674;2023-11-21T12:25:25;18.73;;;10.23;;
33104;SDS011;19476;51.448;6.674;2023-11-21T12:27:53;16.13;;;9.63;;
33104;SDS011;19476;51.448;6.674;2023-11-21T12:30:22;19.55;;;9.98;;
33104;SDS011;19476;51.448;6.674;2023-11-21T12:32:49;18.83;;;9.77;;
33104;SDS011;19476;51.448;6.674;2023-11-21T12:35:16;16.55;;;9.55;;
33104;SDS011;19476;51.448;6.674;2023-11-21T12:37:47;16.58;;;9.45;;
33104;SDS011;19476;51.448;6.674;2023-11-21T12:40:14;17.88;;;8.88;;
33104;SDS011;19476;51.448;6.674;2023-11-21T12:42:42;17.02;;;9.68;;
33104;SDS011;19476;51.448;6.674;2023-11-21T12:45:21;14.17;;;7.97;;
33104;SDS011;19476;51.448;6.674;2023-11-21T12:47:54;14.00;;;8.20;;
33104;SDS011;19476;51.448;6.674;2023-11-21T12:50:28;20.08;;;8.63;;
33104;SDS011;19476;51.448;6.674;2023-11-21T12:53:02;11.95;;;6.68;;
33104;SDS011;19476;51.448;6.674;2023-11-21T12:55:30;13.95;;;7.53;;
33104;SDS011;19476;51.448;6.674;2023-11-21T12:57:57;13.23;;;7.47;;
33104;SDS011;19476;51.448;6.674;2023-11-21T13:00:34;12.68;;;6.85;;
33104;SDS011;19476;51.448;6.674;2023-11-21T13:03:03;13.77;;;7.28;;
33104;SDS011;19476;51.448;6.674;2023-11-21T13:05:33;12.27;;;6.63;;
33104;SDS011;19476;51.448;6.674;2023-11-21T13:08:01;11.85;;;7.70;;
33104;SDS011;19476;51.448;6.674;2023-11-21T13:10:31;12.05;;;6.78;;
33104;SDS011;19476;51.448;6.674;2023-11-21T13:12:58;13.85;;;6.75;;
33104;SDS011;19476;51.448;6.674;2023-11-21T13:15:25;13.00;;;7.20;;
33104;SDS011;19476;51.448;6.674;2023-11-21T13:17:52;12.73;;;6.95;;
33104;SDS011;19476;51.448;6.674;2023-11-21T13:20:21;10.80;;;5.93;;
33104;SDS011;19476;51.448;6.674;2023-11-21T13:22:51;11.23;;;5.70;;
33104;SDS011;19476;51.448;6.674;2023-11-21T13:25:37;10.15;;;5.43;;
33104;SDS011;19476;51.448;6.674;2023-11-21T13:28:06;9.40;;;5.10;;
33104;SDS011;19476;51.448;6.674;2023-11-21T13:30:36;9.43;;;4.75;;
33104;SDS011;19476;51.448;6.674;2023-11-21T13:33:02;8.68;;;4.45;;
33104;SDS011;19476;51.448;6.674;2023-11-21T13:35:36;8.85;;;4.45;;
33104;SDS011;19476;51.448;6.674;2023-11-21T13:38:09;7.40;;;3.92;;
33104;SDS011;19476;51.448;6.674;2023-11-21T13:40:37;6.45;;;3.60;;
33104;SDS011;19476;51.448;6.674;2023-11-21T13:43:11;8.13;;;3.97;;
33104;SDS011;19476;51.448;6.674;2023-11-21T13:45:39;7.57;;;4.00;;
33104;SDS011;19476;51.448;6.674;2023-11-21T13:48:06;7.82;;;3.88;;
33104;SDS011;19476;51.448;6.674;2023-11-21T13:50:39;7.20;;;4.13;;
33104;SDS011;19476;51.448;6.674;2023-11-21T13:53:11;6.55;;;3.95;;
33104;SDS011;19476;51.448;6.674;2023-11-21T13:55:48;6.63;;;3.85;;
33104;SDS011;19476;51.448;6.674;2023-11-21T13:58:14;8.88;;;4.72;;
33104;SDS011;19476;51.448;6.674;2023-11-21T14:00:47;7.20;;;4.28;;
33104;SDS011;19476;51.448;6.674;2023-11-21T14:03:25;7.90;;;4.10;;
33104;SDS011;19476;51.448;6.674;2023-11-21T14:06:24;7.13;;;4.20;;
33104;SDS011;19476;51.448;6.674;2023-11-21T14:08:57;7.93;;;4.13;;
33104;SDS011;19476;51.448;6.674;2023-11-21T14:11:24;10.65;;;6.05;;
33104;SDS011;19476;51.448;6.674;2023-11-21T14:13:51;11.98;;;7.38;;
33104;SDS011;19476;51.448;6.674;2023-11-21T14:16:16;10.25;;;6.88;;
33104;SDS011;19476;51.448;6.674;2023-11-21T14:18:43;8.82;;;5.57;;
33104;SDS011;19476;51.448;6.674;2023-11-21T14:21:21;8.32;;;5.05;;
33104;SDS011;19476;51.448;6.674;2023-11-21T14:23:47;9.27;;;5.80;;
33104;SDS011;19476;51.448;6.674;2023-11-21T14:26:13;10.55;;;5.88;;
33104;SDS011;19476;51.448;6.674;2023-11-21T14:28:40;10.95;;;6.07;;
33104;SDS011;19476;51.448;6.674;2023-11-21T14:31:07;10.43;;;6.32;;
33104;SDS011;19476;51.448;6.674;2023-11-21T14:33:38;9.65;;;5.65;;
33104;SDS011;19476;51.448;6.674;2023-11-21T14:36:08;10.45;;;5.70;;
33104;SDS011;19476;51.448;6.674;2023-11-21T14:38:35;9.10;;;4.75;;
33104;SDS011;19476;51.448;6.674;2023-11-21T14:41:04;10.02;;;5.70;;
33104;SDS011;19476;51.448;6.674;2023-11-21T14:43:33;9.48;;;5.53;;
33104;SDS011;19476;51.448;6.674;2023-11-21T14:46:01;10.13;;;5.50;;
33104;SDS011;19476;51.448;6.674;2023-11-21T14:48:28;9.90;;;5.82;;
33104;SDS011;19476;51.448;6.674;2023-11-21T14:51:23;9.73;;;5.70;;
33104;SDS011;19476;51.448;6.674;2023-11-21T14:53:53;10.18;;;5.65;;
33104;SDS011;19476;51.448;6.674;2023-11-21T14:56:31;9.20;;;4.97;;
33104;SDS011;19476;51.448;6.674;2023-11-21T14:59:00;9.35;;;4.70;;
33104;SDS011;19476;51.448;6.674;2023-11-21T15:01:41;9.27;;;5.25;;
33104;SDS011;19476;51.448;6.674;2023-11-21T15:04:22;9.18;;;5.72;;
33104;SDS011;19476;51.448;6.674;2023-11-21T15:07:04;7.82;;;5.10;;
33104;SDS011;19476;51.448;6.674;2023-11-21T15:09:31;8.38;;;4.95;;
33104;SDS011;19476;51.448;6.674;2023-11-21T15:11:57;9.63;;;5.35;;
33104;SDS011;19476;51.448;6.674;2023-11-21T15:14:29;9.23;;;5.43;;